Time;durP1;ratioP1;P1;durP2;ratioP2;P2;SDS_P1;SDS_P2;PMS_P1;PMS_P2;Temp;Humidity;BMP_temperature;BMP_pressure;BME280_temperature;BME280_humidity;BME280_pressure;Samples;Min_cycle;Max_cycle;Signal;HPM_P1;HPM_P2
2023/12/20 00:02:13;;;;;;;10.18;5.55;;;;;;;6.37;89.65;98495.56;5054089;28;20251;-57
2023/12/20 00:04:38;;;;;;;10.18;6.95;;;;;;;6.71;91.56;98579.50;5053792;28;20703;-57
2023/12/20 00:07:04;;;;;;;8.30;6.38;;;;;;;6.70;93.09;98583.00;5053709;28;20182;-57
2023/12/20 00:09:29;;;;;;;6.55;4.75;;;;;;;6.18;92.83;98499.94;5053926;28;20217;-57
2023/12/20 00:11:54;;;;;;;6.40;4.80;;;;;;;6.25;93.06;98514.16;5051308;28;20334;-57
2023/12/20 00:14:20;;;;;;;8.45;6.82;;;;;;;6.18;92.42;98494.78;5051395;28;20186;-57
2023/12/20 00:16:45;;;;;;;8.45;6.30;;;;;;;6.06;92.21;98474.84;5051314;28;20715;-57
2023/12/20 00:19:11;;;;;;;7.90;5.30;;;;;;;6.02;93.05;98468.22;5051355;28;20170;-57
2023/12/20 00:21:36;;;;;;;7.95;4.82;;;;;;;6.39;93.71;98550.28;5031145;28;20716;-57
2023/12/20 00:24:01;;;;;;;7.03;4.82;;;;;;;5.83;94.23;98464.06;5031020;28;20229;-57
2023/12/20 00:26:28;;;;;;;7.28;4.88;;;;;;;5.83;94.51;98482.84;5031238;28;20297;-57
2023/12/20 00:28:53;;;;;;;3.38;3.17;;;;;;;6.10;94.59;98543.16;5031125;28;20197;-57
2023/12/20 00:31:18;;;;;;;3.47;3.17;;;;;;;6.23;95.12;98559.63;5031147;28;20248;-57
2023/12/20 00:33:46;;;;;;;6.35;4.15;;;;;;;6.02;95.64;98531.59;5031153;28;20240;-57
2023/12/20 00:36:11;;;;;;;6.35;4.93;;;;;;;5.63;95.93;98462.44;5030947;28;20313;-57
2023/12/20 00:38:36;;;;;;;6.65;4.45;;;;;;;6.03;96.10;98522.97;5031091;28;20659;-57
2023/12/20 00:41:02;;;;;;;8.40;4.68;;;;;;;5.79;95.94;98483.91;5030949;28;20253;-57
2023/12/20 00:43:27;;;;;;;6.70;4.68;;;;;;;5.61;96.29;98455.72;5045514;28;20304;-57
2023/12/20 00:45:53;;;;;;;4.78;4.25;;;;;;;5.54;96.08;98449.22;5050796;28;20220;-57
2023/12/20 00:48:18;;;;;;;5.82;4.55;;;;;;;5.92;96.37;98518.38;5050691;28;20273;-57
2023/12/20 00:50:44;;;;;;;5.47;4.65;;;;;;;5.47;96.89;98437.59;5050744;28;20677;-57
2023/12/20 00:53:09;;;;;;;4.93;4.22;;;;;;;5.59;97.45;98448.06;5052239;28;20272;-57
2023/12/20 00:55:34;;;;;;;7.72;5.10;;;;;;;6.03;95.31;98499.88;5053051;28;20173;-57
2023/12/20 00:58:00;;;;;;;7.78;5.30;;;;;;;6.07;94.24;98491.94;5052998;28;20257;-58
2023/12/20 01:00:25;;;;;;;8.38;6.32;;;;;;;5.91;94.83;98469.66;5053059;28;20554;-58
2023/12/20 01:02:51;;;;;;;10.13;6.10;;;;;;;6.04;95.64;98486.13;5052915;28;20185;-57
2023/12/20 01:05:17;;;;;;;7.82;5.53;;;;;;;5.67;96.36;98435.72;5052503;28;20644;-56
2023/12/20 01:07:43;;;;;;;7.40;5.57;;;;;;;6.11;97.31;98498.59;5052840;28;20185;-56
2023/12/20 01:10:09;;;;;;;11.27;7.25;;;;;;;5.65;97.39;98411.84;5052775;28;20196;-57
2023/12/20 01:12:36;;;;;;;11.43;6.38;;;;;;;6.13;97.53;98496.75;5052723;28;20546;-57
2023/12/20 01:15:01;;;;;;;9.65;5.80;;;;;;;6.19;97.84;98501.59;5050052;28;20284;-56
2023/12/20 01:17:27;;;;;;;10.15;6.38;;;;;;;5.60;97.85;98410.41;5050092;28;20304;-57
2023/12/20 01:19:52;;;;;;;10.02;6.25;;;;;;;5.52;98.29;98405.66;5050127;28;20210;-56
2023/12/20 01:22:18;;;;;;;10.75;6.20;;;;;;;5.57;98.84;98401.13;5050039;28;20188;-56
2023/12/20 01:24:43;;;;;;;7.88;5.32;;;;;;;5.89;97.43;98459.44;5049825;28;20206;-57
2023/12/20 01:27:08;;;;;;;9.18;5.55;;;;;;;6.10;97.54;98496.94;5050013;28;20597;-57
2023/12/20 01:29:34;;;;;;;7.03;5.03;;;;;;;5.80;98.78;98452.22;5049903;28;20744;-57
2023/12/20 01:31:59;;;;;;;5.60;4.65;;;;;;;5.76;97.59;98430.13;5049915;28;20224;-56
2023/12/20 01:34:24;;;;;;;7.43;5.18;;;;;;;6.05;97.76;98475.78;5069639;28;20574;-56
2023/12/20 01:36:50;;;;;;;4.47;3.75;;;;;;;5.54;97.34;98388.44;5069676;28;20225;-56
2023/12/20 01:39:17;;;;;;;4.75;3.97;;;;;;;5.67;98.52;98419.47;5069754;28;20217;-56
2023/12/20 01:41:42;;;;;;;4.82;4.25;;;;;;;5.52;99.36;98410.78;5069643;28;20268;-56
2023/12/20 01:44:08;;;;;;;10.85;4.25;;;;;;;5.33;99.75;98376.66;5069562;28;20625;-57
2023/12/20 01:46:33;;;;;;;5.80;4.32;;;;;;;5.29;100.00;98367.44;5049350;28;20198;-56
2023/12/20 01:48:59;;;;;;;5.57;4.40;;;;;;;5.50;99.80;98412.59;5049550;28;20184;-56
2023/12/20 01:51:27;;;;;;;5.80;4.53;;;;;;;5.61;100.00;98428.31;5049489;28;20186;-56
2023/12/20 01:53:55;;;;;;;8.43;5.45;;;;;;;5.75;100.00;98453.28;5049550;28;20178;-56
2023/12/20 01:56:21;;;;;;;5.95;4.97;;;;;;;5.16;100.00;98358.69;5049414;28;20694;-56
2023/12/20 01:58:47;;;;;;;8.82;6.22;;;;;;;5.59;100.00;98412.13;5049435;28;20181;-57
2023/12/20 02:01:13;;;;;;;6.50;5.13;;;;;;;5.68;100.00;98442.50;5049406;28;20190;-57
2023/12/20 02:03:41;;;;;;;5.90;4.85;;;;;;;5.67;100.00;98446.00;5049432;28;20169;-57
2023/12/20 02:06:07;;;;;;;5.13;4.63;;;;;;;5.20;100.00;98377.31;5049243;28;20190;-57
2023/12/20 02:08:34;;;;;;;8.35;4.70;;;;;;;5.60;100.00;98430.94;5049296;28;20292;-57
2023/12/20 02:11:00;;;;;;;4.10;3.58;;;;;;;5.25;100.00;98365.13;5046118;28;20186;-57
2023/12/20 02:13:26;;;;;;;6.22;3.95;;;;;;;5.06;100.00;98351.47;5029333;28;20184;-57
2023/12/20 02:15:52;;;;;;;4.35;3.53;;;;;;;5.10;100.00;98341.03;5028878;28;20300;-57
2023/12/20 02:18:17;;;;;;;5.50;4.30;;;;;;;5.53;100.00;98438.09;5041057;28;20272;-57
2023/12/20 02:20:42;;;;;;;5.35;4.63;;;;;;;5.18;100.00;98374.00;5068889;28;20189;-58
2023/12/20 02:23:08;;;;;;;6.10;4.30;;;;;;;5.34;100.00;98396.28;5068960;28;20661;-57
2023/12/20 02:25:33;;;;;;;6.88;4.70;;;;;;;5.39;100.00;98409.72;5068851;28;20204;-57
2023/12/20 02:27:59;;;;;;;6.93;4.60;;;;;;;5.10;100.00;98356.41;5069017;28;20196;-57
2023/12/20 02:30:24;;;;;;;5.50;4.35;;;;;;;5.18;100.00;98372.25;5069115;28;20703;-57
2023/12/20 02:32:51;;;;;;;6.70;4.47;;;;;;;5.03;100.00;98344.81;5068954;28;20616;-57
2023/12/20 02:35:16;;;;;;;6.93;4.65;;;;;;;5.04;100.00;98350.75;5069276;28;20184;-57
2023/12/20 02:37:42;;;;;;;5.90;4.57;;;;;;;4.89;100.00;98313.84;5068858;28;20587;-57
2023/12/20 02:40:07;;;;;;;5.55;4.57;;;;;;;5.32;100.00;98380.16;5068944;28;20260;-57
2023/12/20 02:42:33;;;;;;;3.92;3.60;;;;;;;5.49;100.00;98400.66;5068807;28;20180;-57
2023/12/20 02:44:58;;;;;;;1.95;1.70;;;;;;;5.22;98.58;98360.13;5068821;28;20185;-57
2023/12/20 02:47:24;;;;;;;5.55;2.35;;;;;;;5.43;98.85;98389.88;5068847;28;20186;-57
2023/12/20 02:49:49;;;;;;;2.83;2.13;;;;;;;5.19;98.04;98338.00;5068832;28;20780;-57
2023/12/20 02:52:15;;;;;;;3.30;2.88;;;;;;;5.03;98.03;98313.19;5068793;28;20184;-57
2023/12/20 02:54:40;;;;;;;4.18;3.38;;;;;;;4.86;99.16;98295.22;5068782;28;20677;-57
2023/12/20 02:57:06;;;;;;;2.33;2.15;;;;;;;5.38;98.54;98373.88;5067311;28;20212;-57
2023/12/20 02:59:31;;;;;;;2.60;2.25;;;;;;;5.52;96.79;98395.38;5051187;28;20545;-57
2023/12/20 03:01:57;;;;;;;3.72;2.47;;;;;;;4.90;97.99;98286.50;5051191;28;20198;-57
2023/12/20 03:04:22;;;;;;;3.45;3.00;;;;;;;5.35;98.67;98379.97;5051091;28;20235;-57
2023/12/20 03:06:47;;;;;;;3.83;3.25;;;;;;;5.24;99.42;98369.41;5050843;28;20181;-57
2023/12/20 03:09:13;;;;;;;3.92;2.90;;;;;;;4.75;99.73;98280.34;5051056;28;20182;-57
2023/12/20 03:11:39;;;;;;;5.82;3.38;;;;;;;5.43;100.00;98385.56;5051073;28;20644;-57
2023/12/20 03:14:04;;;;;;;2.90;2.70;;;;;;;5.45;100.00;98380.38;5051042;28;20265;-57
2023/12/20 03:16:31;;;;;;;2.15;2.05;;;;;;;5.18;97.42;98325.28;5050920;28;20205;-57
2023/12/20 03:18:56;;;;;;;1.42;1.08;;;;;;;5.27;93.97;98366.69;5050997;28;20178;-57
2023/12/20 03:21:22;;;;;;;1.70;1.60;;;;;;;5.10;94.11;98341.03;5050960;28;20189;-57
2023/12/20 03:23:47;;;;;;;2.47;2.28;;;;;;;5.33;96.21;98379.22;5050773;28;20629;-57
2023/12/20 03:26:14;;;;;;;1.50;1.40;;;;;;;4.86;94.70;98302.91;5051018;28;20205;-57
2023/12/20 03:28:39;;;;;;;1.80;1.45;;;;;;;4.71;94.45;98267.75;5052916;28;20659;-57
2023/12/20 03:31:05;;;;;;;2.13;2.00;;;;;;;5.16;95.79;98353.56;5054635;28;20281;-57
2023/12/20 03:33:30;;;;;;;1.50;1.40;;;;;;;4.98;95.59;98336.50;5054659;28;20224;-57
2023/12/20 03:35:55;;;;;;;2.47;2.00;;;;;;;5.09;94.80;98352.19;5054482;28;20707;-57
2023/12/20 03:38:23;;;;;;;2.30;2.13;;;;;;;5.07;96.16;98351.41;5054247;28;20177;-58
2023/12/20 03:40:49;;;;;;;3.05;2.70;;;;;;;4.78;97.18;98302.44;5054513;28;20173;-57
2023/12/20 03:43:15;;;;;;;2.75;2.50;;;;;;;4.40;98.33;98244.47;5054440;28;20180;-57
2023/12/20 03:45:41;;;;;;;2.65;2.45;;;;;;;4.90;98.58;98319.81;5054475;28;20646;-57
2023/12/20 03:48:07;;;;;;;2.50;2.30;;;;;;;4.74;99.42;98296.66;5054470;28;20178;-57
2023/12/20 03:50:32;;;;;;;2.00;1.80;;;;;;;4.48;99.04;98258.59;5054357;28;20235;-58
2023/12/20 03:52:57;;;;;;;2.38;2.00;;;;;;;4.80;99.44;98319.41;5054277;28;20715;-57
2023/12/20 03:55:23;;;;;;;1.75;1.65;;;;;;;5.05;96.45;98348.09;5054265;28;20173;-57
2023/12/20 03:57:48;;;;;;;1.60;1.50;;;;;;;4.89;95.40;98321.53;5053935;28;20205;-57
2023/12/20 04:00:14;;;;;;;1.55;1.45;;;;;;;4.78;95.09;98317.81;5054145;28;20178;-57
2023/12/20 04:02:41;;;;;;;3.33;1.52;;;;;;;5.03;96.51;98355.06;5054148;28;20178;-58
2023/12/20 04:05:08;;;;;;;1.20;1.10;;;;;;;4.65;95.86;98306.47;5054081;28;20178;-57
2023/12/20 04:07:34;;;;;;;1.00;1.00;;;;;;;4.83;95.23;98347.44;5053996;28;20174;-57
2023/12/20 04:10:00;;;;;;;1.90;1.52;;;;;;;3.94;96.67;98220.16;5054001;28;20169;-57
2023/12/20 04:12:26;;;;;;;1.80;1.70;;;;;;;4.78;96.54;98341.69;5053912;28;20231;-57
2023/12/20 04:14:51;;;;;;;1.67;1.67;;;;;;;4.86;96.94;98349.03;5053826;28;20170;-57
2023/12/20 04:17:17;;;;;;;2.05;1.73;;;;;;;4.90;97.55;98355.69;5053772;28;20601;-57
2023/12/20 04:19:43;;;;;;;2.75;2.55;;;;;;;4.76;98.79;98328.13;5053755;28;20178;-57
2023/12/20 04:22:08;;;;;;;3.17;2.67;;;;;;;4.40;99.86;98275.22;5053997;28;20706;-57
2023/12/20 04:24:34;;;;;;;4.40;2.65;;;;;;;4.41;99.89;98262.34;5053348;28;20236;-57
2023/12/20 04:26:59;;;;;;;3.35;2.50;;;;;;;4.37;99.44;98253.13;5053914;28;20178;-57
2023/12/20 04:29:24;;;;;;;3.08;2.83;;;;;;;4.54;99.03;98291.59;5053613;28;20700;-57
2023/12/20 04:31:51;;;;;;;1.27;1.27;;;;;;;4.23;96.45;98246.97;5053884;28;20177;-57
2023/12/20 04:34:17;;;;;;;1.55;1.45;;;;;;;4.63;97.09;98324.50;5053345;28;20189;-57
2023/12/20 04:36:42;;;;;;;1.45;1.35;;;;;;;4.46;97.92;98269.81;5053590;28;20197;-57
2023/12/20 04:39:08;;;;;;;1.50;1.40;;;;;;;4.80;98.39;98333.94;5052860;28;20292;-58
2023/12/20 04:41:33;;;;;;;1.77;1.67;;;;;;;4.66;97.84;98291.03;5053283;28;20181;-57
2023/12/20 04:43:58;;;;;;;2.17;2.00;;;;;;;4.55;98.37;98262.50;5053248;28;20674;-57
2023/12/20 04:46:24;;;;;;;2.30;2.13;;;;;;;4.34;99.09;98225.13;5053296;28;20621;-57
2023/12/20 04:48:49;;;;;;;3.88;2.50;;;;;;;4.93;99.80;98322.22;5053207;28;20186;-57
2023/12/20 04:51:15;;;;;;;3.00;2.75;;;;;;;4.95;100.00;98323.81;5053204;28;20548;-57
2023/12/20 04:53:40;;;;;;;3.80;2.70;;;;;;;4.77;98.84;98278.53;5053150;28;20183;-57
2023/12/20 04:56:06;;;;;;;2.50;2.30;;;;;;;4.73;97.37;98269.31;5053012;28;20201;-57
2023/12/20 04:58:31;;;;;;;2.40;2.20;;;;;;;4.73;96.46;98283.91;5052766;28;20204;-57
2023/12/20 05:00:56;;;;;;;2.40;2.20;;;;;;;4.42;96.93;98233.25;5052992;28;20185;-57
2023/12/20 05:03:22;;;;;;;2.10;1.92;;;;;;;4.77;97.68;98288.78;5052961;28;20588;-57
2023/12/20 05:05:48;;;;;;;4.22;2.90;;;;;;;4.67;98.29;98258.56;5052867;28;20170;-57
2023/12/20 05:08:13;;;;;;;4.53;3.80;;;;;;;4.82;98.89;98294.53;5052848;28;20567;-57
2023/12/20 05:10:40;;;;;;;4.07;3.67;;;;;;;4.48;100.00;98238.09;5052795;28;20702;-57
2023/12/20 05:13:05;;;;;;;4.88;3.90;;;;;;;4.62;100.00;98266.44;5052683;28;20186;-57
2023/12/20 05:15:31;;;;;;;4.40;4.00;;;;;;;4.88;100.00;98314.75;5053002;28;20189;-58
2023/12/20 05:17:56;;;;;;;4.85;4.45;;;;;;;4.86;100.00;98314.00;5052589;28;20205;-57
2023/12/20 05:20:22;;;;;;;5.00;4.53;;;;;;;4.50;100.00;98240.59;5052604;28;20554;-58
2023/12/20 05:22:48;;;;;;;6.40;4.72;;;;;;;4.81;100.00;98292.88;5052311;28;20585;-57
2023/12/20 05:25:13;;;;;;;5.35;4.25;;;;;;;4.44;100.00;98231.44;5049692;28;20225;-57
2023/12/20 05:27:39;;;;;;;6.55;5.13;;;;;;;4.57;100.00;98257.31;5050066;28;20182;-57
2023/12/20 05:30:05;;;;;;;5.03;4.32;;;;;;;4.05;100.00;98181.28;5049894;28;20255;-57
2023/12/20 05:32:31;;;;;;;6.75;5.20;;;;;;;4.36;100.00;98233.53;5050141;28;20182;-57
2023/12/20 05:34:56;;;;;;;8.02;5.30;;;;;;;4.68;100.00;98284.13;5049893;28;20186;-58
2023/12/20 05:37:21;;;;;;;5.53;5.03;;;;;;;4.47;100.00;98236.44;5049767;28;20213;-58
2023/12/20 05:39:47;;;;;;;7.43;5.32;;;;;;;4.71;100.00;98281.41;5049824;28;20186;-58
2023/12/20 05:42:12;;;;;;;9.95;8.30;;;;;;;4.62;100.00;98278.44;5050040;28;20181;-57
2023/12/20 05:44:38;;;;;;;8.20;5.25;;;;;;;3.96;100.00;98182.53;5049754;28;20636;-58
2023/12/20 05:47:03;;;;;;;6.22;5.13;;;;;;;4.34;100.00;98235.34;5049632;28;20648;-57
2023/12/20 05:49:29;;;;;;;6.30;4.82;;;;;;;4.29;100.00;98231.34;5049531;28;20194;-57
2023/12/20 05:51:54;;;;;;;6.38;5.30;;;;;;;4.44;100.00;98244.25;5048661;28;20771;-57
2023/12/20 05:54:19;;;;;;;7.57;5.13;;;;;;;4.24;100.00;98212.78;5049577;28;20210;-57
2023/12/20 05:56:45;;;;;;;7.68;5.47;;;;;;;4.43;100.00;98252.84;5049403;28;20802;-57
2023/12/20 05:59:10;;;;;;;7.07;4.82;;;;;;;4.08;100.00;98201.63;5049484;28;20215;-57
2023/12/20 06:01:35;;;;;;;8.77;5.25;;;;;;;4.22;100.00;98218.00;5049542;28;20178;-57
2023/12/20 06:04:01;;;;;;;7.60;4.60;;;;;;;4.25;100.00;98224.72;5051791;28;20174;-58
2023/12/20 06:06:26;;;;;;;6.75;5.20;;;;;;;4.30;100.00;98238.94;5051817;28;20174;-58
2023/12/20 06:08:52;;;;;;;4.80;4.32;;;;;;;4.18;100.00;98247.19;5051751;28;20174;-57
2023/12/20 06:11:17;;;;;;;5.28;4.53;;;;;;;3.76;100.00;98167.25;5051609;28;20197;-57
2023/12/20 06:13:42;;;;;;;5.85;4.53;;;;;;;4.00;100.00;98207.09;5029111;28;20201;-58
2023/12/20 06:16:08;;;;;;;7.75;5.43;;;;;;;4.12;100.00;98214.19;5029358;28;20274;-57
2023/12/20 06:18:33;;;;;;;13.80;8.13;;;;;;;3.95;100.00;98170.63;5029233;28;20193;-58
2023/12/20 06:20:58;;;;;;;9.65;5.30;;;;;;;4.50;100.00;98251.66;5029175;28;20185;-57
2023/12/20 06:23:24;;;;;;;10.80;6.78;;;;;;;4.17;100.00;98193.50;5029138;28;20206;-60
2023/12/20 06:25:49;;;;;;;9.60;7.32;;;;;;;4.23;100.00;98242.72;5028970;28;20200;-56
2023/12/20 06:28:15;;;;;;;11.70;6.20;;;;;;;3.81;100.00;98177.28;5029349;28;20197;-57
2023/12/20 06:30:40;;;;;;;8.38;5.32;;;;;;;3.85;100.00;98156.59;5029042;28;20200;-57
2023/12/20 06:33:06;;;;;;;6.97;5.50;;;;;;;3.64;100.00;98118.38;5029013;28;20202;-57
2023/12/20 06:35:32;;;;;;;7.80;5.50;;;;;;;4.44;100.00;98251.94;5028985;28;20649;-57
2023/12/20 06:37:58;;;;;;;7.30;5.65;;;;;;;4.46;100.00;98250.16;5028915;28;20783;-57
2023/12/20 06:40:23;;;;;;;8.85;5.28;;;;;;;3.94;100.00;98153.63;5028888;28;20563;-57
2023/12/20 06:42:49;;;;;;;8.80;6.63;;;;;;;4.50;100.00;98236.28;5028882;28;20179;-59
2023/12/20 06:45:14;;;;;;;10.85;6.50;;;;;;;4.39;100.00;98219.78;5045061;28;20181;-57
2023/12/20 06:47:40;;;;;;;13.60;8.18;;;;;;;4.55;100.00;98229.22;5051222;28;20239;-57
2023/12/20 06:50:05;;;;;;;14.13;7.97;;;;;;;4.66;100.00;98246.66;5051242;28;20529;-57
2023/12/20 06:52:31;;;;;;;10.90;7.25;;;;;;;4.23;100.00;98165.88;5050962;28;20646;-57
2023/12/20 06:54:56;;;;;;;12.85;8.05;;;;;;;4.80;100.00;98245.09;5051235;28;20220;-57
2023/12/20 06:57:21;;;;;;;9.88;7.25;;;;;;;4.63;100.00;98211.75;5050874;28;20723;-57
2023/12/20 06:59:47;;;;;;;9.57;5.90;;;;;;;4.92;100.00;98252.19;5051181;28;20174;-58
2023/12/20 07:02:13;;;;;;;9.43;5.65;;;;;;;4.66;100.00;98195.41;5051169;28;20194;-57
2023/12/20 07:04:41;;;;;;;4.80;3.47;;;;;;;5.05;100.00;98250.69;5055180;28;20260;-57
2023/12/20 07:07:07;;;;;;;3.92;3.22;;;;;;;5.06;100.00;98221.56;5055148;28;20178;-57
2023/12/20 07:09:33;;;;;;;3.35;2.75;;;;;;;5.23;100.00;98244.63;5055135;28;20664;-57
2023/12/20 07:11:59;;;;;;;2.67;1.92;;;;;;;5.46;94.83;98236.63;5055011;28;20181;-57
2023/12/20 07:14:24;;;;;;;1.20;1.20;;;;;;;4.94;92.73;98136.75;5054979;28;20174;-56
2023/12/20 07:16:49;;;;;;;1.70;1.60;;;;;;;5.46;92.51;98215.25;5054920;28;20201;-57
2023/12/20 07:19:15;;;;;;;1.70;1.60;;;;;;;5.24;93.65;98176.22;5055030;28;20230;-57
2023/12/20 07:21:40;;;;;;;2.40;2.20;;;;;;;5.50;95.01;98212.47;5054916;28;20568;-58
2023/12/20 07:24:06;;;;;;;7.72;5.72;;;;;;;5.47;95.69;98204.91;5042870;28;20239;-58
2023/12/20 07:26:31;;;;;;;6.35;4.55;;;;;;;5.41;96.44;98181.31;5051121;28;20196;-58
2023/12/20 07:28:58;;;;;;;11.50;7.00;;;;;;;5.80;97.22;98228.88;5054602;28;20257;-58
2023/12/20 07:31:24;;;;;;;13.15;7.90;;;;;;;5.30;97.03;98133.13;5054458;28;20196;-58
2023/12/20 07:33:49;;;;;;;12.07;7.32;;;;;;;5.63;97.98;98186.97;5054457;28;20260;-58
2023/12/20 07:36:15;;;;;;;4.00;3.65;;;;;;;5.99;94.45;98229.56;5054058;28;20708;-58
2023/12/20 07:38:41;;;;;;;7.63;3.78;;;;;;;6.00;92.95;98208.09;5054360;28;20178;-58
2023/12/20 07:41:09;;;;;;;6.57;3.55;;;;;;;5.94;92.37;98184.50;5054320;28;20634;-58
2023/12/20 07:43:35;;;;;;;2.60;2.22;;;;;;;5.86;91.56;98154.09;5054063;28;20232;-58
2023/12/20 07:46:05;;;;;;;4.20;2.38;;;;;;;6.35;89.64;98214.72;5054594;28;20186;-58
2023/12/20 07:48:30;;;;;;;3.00;2.65;;;;;;;5.83;89.81;98122.63;5054292;28;20174;-58
2023/12/20 07:50:56;;;;;;;5.57;3.15;;;;;;;5.93;89.60;98116.06;5054189;28;20565;-58
2023/12/20 07:53:21;;;;;;;6.13;3.17;;;;;;;6.13;89.69;98131.22;5031491;28;20269;-57
2023/12/20 07:55:46;;;;;;;21.98;12.35;;;;;;;6.29;89.97;98144.88;5031591;28;20285;-57
2023/12/20 07:58:12;;;;;;;24.25;15.40;;;;;;;6.62;89.84;98181.53;5031567;28;20193;-58
2023/12/20 08:00:38;;;;;;;41.58;23.00;;;;;;;6.58;91.24;98169.78;5031379;28;20204;-58
2023/12/20 08:03:03;;;;;;;47.33;25.88;;;;;;;6.37;92.60;98114.44;5031518;28;20285;-58
2023/12/20 08:05:28;;;;;;;64.57;31.23;;;;;;;7.00;93.96;98211.84;5031461;28;20183;-58
2023/12/20 08:07:54;;;;;;;54.25;29.05;;;;;;;7.08;95.08;98190.84;5031333;28;20252;-58
2023/12/20 08:10:19;;;;;;;49.97;29.10;;;;;;;6.90;95.49;98154.16;5031393;28;20265;-58
2023/12/20 08:12:45;;;;;;;45.75;26.92;;;;;;;6.78;96.33;98116.31;5031408;28;20190;-58
2023/12/20 08:15:10;;;;;;;47.95;26.90;;;;;;;6.81;96.12;98105.84;5030230;28;20248;-58
2023/12/20 08:17:35;;;;;;;49.50;27.15;;;;;;;7.07;95.70;98143.72;5031276;28;20732;-57
2023/12/20 08:20:01;;;;;;;33.70;18.92;;;;;;;7.51;95.49;98202.88;5031243;28;20555;-58
2023/12/20 08:22:26;;;;;;;27.15;16.50;;;;;;;7.13;94.28;98121.94;5031292;28;20213;-58
2023/12/20 08:24:52;;;;;;;33.95;17.63;;;;;;;7.57;93.46;98179.31;5047133;28;20201;-57
2023/12/20 08:27:17;;;;;;;32.95;17.83;;;;;;;7.42;93.20;98139.88;5053605;28;20181;-58
2023/12/20 08:29:45;;;;;;;30.05;17.70;;;;;;;7.43;92.33;98136.38;5053087;28;20180;-58
2023/12/20 08:32:10;;;;;;;31.00;16.55;;;;;;;7.36;92.47;98103.38;5053367;28;20239;-57
2023/12/20 08:34:35;;;;;;;28.20;16.70;;;;;;;7.61;92.78;98140.41;5053145;28;20279;-57
2023/12/20 08:37:01;;;;;;;21.92;14.85;;;;;;;7.79;92.32;98153.91;5052956;28;20205;-57
2023/12/20 08:39:26;;;;;;;26.25;15.77;;;;;;;7.58;91.63;98107.13;5053162;28;20216;-57
2023/12/20 08:41:52;;;;;;;28.10;17.17;;;;;;;7.83;91.71;98130.47;5053185;28;20304;-57
2023/12/20 08:44:17;;;;;;;32.15;18.27;;;;;;;7.71;91.86;98100.31;5053116;28;20182;-57
2023/12/20 08:46:43;;;;;;;31.88;16.80;;;;;;;7.99;91.65;98131.13;5053399;28;20181;-57
2023/12/20 08:49:09;;;;;;;30.80;16.23;;;;;;;8.34;91.06;98165.84;5053046;28;20200;-57
2023/12/20 08:51:35;;;;;;;26.35;16.15;;;;;;;7.95;91.42;98083.34;5053112;28;20173;-57
2023/12/20 08:54:00;;;;;;;27.13;15.40;;;;;;;8.16;89.50;98102.56;5052932;28;20608;-57
2023/12/20 08:56:25;;;;;;;23.48;15.43;;;;;;;8.61;89.81;98156.38;5030197;28;20327;-57
2023/12/20 08:58:51;;;;;;;27.67;15.35;;;;;;;8.21;89.30;98074.78;5030672;28;20178;-57
2023/12/20 09:01:16;;;;;;;25.80;14.13;;;;;;;8.09;89.06;98052.34;5030377;28;20256;-57
2023/12/20 09:03:42;;;;;;;29.00;16.83;;;;;;;8.52;89.43;98131.19;5030107;28;20285;-58
2023/12/20 09:06:07;;;;;;;26.33;16.13;;;;;;;8.57;88.42;98128.31;5030695;28;20722;-58
2023/12/20 09:08:33;;;;;;;30.00;16.85;;;;;;;8.46;88.24;98110.94;5030205;28;20214;-58
2023/12/20 09:10:59;;;;;;;27.02;16.23;;;;;;;8.49;88.19;98110.75;5010408;28;20570;-58
2023/12/20 09:13:28;;;;;;;22.95;15.77;;;;;;;8.28;88.65;98070.88;5010436;28;20187;-57
2023/12/20 09:15:56;;;;;;;24.25;14.70;;;;;;;8.50;88.94;98099.50;5010345;28;20665;-57
2023/12/20 09:18:21;;;;;;;27.83;13.82;;;;;;;8.49;88.89;98099.59;5010407;28;20262;-58
2023/12/20 09:20:47;;;;;;;25.80;14.63;;;;;;;8.03;88.78;98011.53;5010350;28;20277;-58
2023/12/20 09:23:12;;;;;;;24.00;14.00;;;;;;;8.11;87.03;98011.84;5010306;28;20179;-57
2023/12/20 09:25:38;;;;;;;27.70;14.52;;;;;;;7.99;87.24;97980.91;5009702;28;20673;-58
2023/12/20 09:28:04;;;;;;;25.35;15.65;;;;;;;8.41;87.78;98055.47;5010173;28;20187;-57
2023/12/20 09:30:29;;;;;;;27.33;14.82;;;;;;;8.08;88.11;97999.19;5010204;28;20183;-57
2023/12/20 09:32:55;;;;;;;28.45;14.90;;;;;;;8.13;87.46;97989.41;5014421;28;20592;-58
2023/12/20 09:35:20;;;;;;;30.05;15.00;;;;;;;8.38;86.31;98019.59;5049672;28;20286;-57
2023/12/20 09:37:46;;;;;;;22.60;14.05;;;;;;;8.38;86.48;98017.81;5048669;28;20671;-58
2023/12/20 09:40:13;;;;;;;31.58;16.58;;;;;;;8.25;85.41;97983.47;5048145;28;20246;-58
2023/12/20 09:42:58;;;;;;;21.95;14.20;;;;;;;8.80;85.99;98063.97;5048382;28;20178;-58
2023/12/20 09:45:24;;;;;;;24.17;15.60;;;;;;;8.81;86.50;98059.63;5049603;28;20711;-58
2023/12/20 09:47:53;;;;;;;27.38;15.40;;;;;;;8.93;86.97;98051.91;5009858;28;20225;-57
2023/12/20 09:50:20;;;;;;;27.63;15.05;;;;;;;8.98;86.55;98036.09;5009847;28;20202;-57
2023/12/20 09:52:52;;;;;;;24.13;14.30;;;;;;;8.91;85.72;97988.44;4990134;28;20195;-57
2023/12/20 09:55:19;;;;;;;20.10;12.52;;;;;;;9.31;85.14;98034.59;4990227;28;20569;-57
2023/12/20 09:57:48;;;;;;;20.70;12.35;;;;;;;8.93;84.89;97950.44;5000488;28;20320;-58
2023/12/20 10:00:15;;;;;;;18.73;12.27;;;;;;;9.22;82.02;97972.47;4989979;28;20697;-57
2023/12/20 10:02:49;;;;;;;22.15;11.90;;;;;;;9.61;81.54;98032.47;4989939;28;20192;-57
2023/12/20 10:05:20;;;;;;;20.33;11.95;;;;;;;9.65;80.69;98023.56;4987711;28;20659;-57
2023/12/20 10:07:48;;;;;;;20.60;11.98;;;;;;;9.67;80.18;98010.56;4951103;28;20233;-58
2023/12/20 10:10:14;;;;;;;19.95;11.90;;;;;;;9.75;80.16;98024.56;4951380;28;20193;-57
2023/12/20 10:12:40;;;;;;;22.70;13.05;;;;;;;9.63;80.21;98005.59;4966601;28;20258;-57
2023/12/20 10:15:06;;;;;;;19.83;12.50;;;;;;;9.61;80.38;98006.63;4970375;28;20180;-57
2023/12/20 10:17:31;;;;;;;21.42;12.15;;;;;;;9.60;80.72;98005.00;4970140;28;20224;-57
2023/12/20 10:19:58;;;;;;;22.30;11.85;;;;;;;9.43;80.38;97966.63;4989030;28;20199;-57
2023/12/20 10:22:23;;;;;;;25.92;12.00;;;;;;;9.25;80.45;97926.63;4989701;28;20291;-57
2023/12/20 10:24:48;;;;;;;21.25;11.48;;;;;;;9.79;79.35;98005.31;5007725;28;20297;-57
2023/12/20 10:27:14;;;;;;;21.38;11.65;;;;;;;9.69;80.40;97983.69;5009211;28;20179;-57
2023/12/20 10:29:39;;;;;;;17.88;11.02;;;;;;;9.82;80.33;97987.84;5009117;28;20215;-57
2023/12/20 10:32:25;;;;;;;20.85;11.93;;;;;;;9.80;80.70;97981.97;5009104;28;20179;-57
2023/12/20 10:34:51;;;;;;;17.65;10.93;;;;;;;9.70;81.32;97956.91;5009073;28;20274;-57
2023/12/20 10:37:17;;;;;;;17.65;11.75;;;;;;;9.35;81.64;97886.31;5008383;28;20721;-57
2023/12/20 10:39:43;;;;;;;20.25;12.13;;;;;;;9.42;81.81;97877.19;5009274;28;20198;-57
2023/12/20 10:42:11;;;;;;;23.00;12.40;;;;;;;9.82;81.63;97935.34;5008991;28;20190;-57
2023/12/20 10:44:36;;;;;;;18.38;11.63;;;;;;;9.99;81.08;97940.13;5020836;28;20220;-57
2023/12/20 10:47:03;;;;;;;22.13;12.98;;;;;;;9.75;80.39;97882.50;5051099;28;20543;-57
2023/12/20 10:49:31;;;;;;;25.38;11.82;;;;;;;10.06;80.21;97925.81;5048338;28;20315;-57
2023/12/20 10:51:59;;;;;;;21.30;11.90;;;;;;;10.14;80.92;97939.84;5048510;28;20657;-57
2023/12/20 10:54:25;;;;;;;19.40;12.00;;;;;;;10.16;81.36;97943.13;5068284;28;20192;-57
2023/12/20 10:56:52;;;;;;;17.38;12.07;;;;;;;10.28;79.99;97936.22;5028233;28;20210;-57
2023/12/20 10:59:19;;;;;;;23.95;12.85;;;;;;;9.84;80.10;97850.78;5028510;28;20214;-57
2023/12/20 11:01:47;;;;;;;23.23;12.68;;;;;;;10.22;80.26;97896.13;5028527;28;20194;-57
2023/12/20 11:04:19;;;;;;;21.08;13.00;;;;;;;10.27;79.83;97899.19;5028536;28;20195;-57
2023/12/20 11:07:01;;;;;;;29.88;14.77;;;;;;;10.07;80.14;97859.47;5028596;28;20669;-57
2023/12/20 11:09:33;;;;;;;22.83;14.50;;;;;;;10.47;80.11;97926.13;5028778;28;20350;-57
2023/12/20 11:12:25;;;;;;;20.77;14.32;;;;;;;10.47;79.72;97915.78;4995515;28;20194;-57
2023/12/20 11:14:55;;;;;;;22.60;14.20;;;;;;;10.22;80.35;97872.06;5028359;28;20186;-58
2023/12/20 11:17:21;;;;;;;20.38;14.13;;;;;;;10.47;81.56;97902.84;5028331;28;20250;-57
2023/12/20 11:19:52;;;;;;;30.92;18.50;;;;;;;10.55;80.97;97909.09;5028301;28;20606;-57
2023/12/20 11:22:19;;;;;;;28.13;15.77;;;;;;;10.29;80.70;97852.53;5028428;28;20297;-57
2023/12/20 11:24:46;;;;;;;24.40;14.10;;;;;;;10.63;80.01;97890.41;5028202;28;20290;-57
2023/12/20 11:27:13;;;;;;;21.27;13.35;;;;;;;10.69;79.60;97889.94;5033570;28;20212;-57
2023/12/20 11:29:39;;;;;;;23.13;13.23;;;;;;;10.59;80.11;97882.06;5050720;28;20170;-57